sensor_id;sensor_type;location;lat;lon;timestamp;pressure;altitude;pressure_sealevel;temperature;humidity
12077;BME280;12420;42.676;23.262;2023-07-30T00:00:11;94454.78;;;23.01;72.61
12077;BME280;12420;42.676;23.262;2023-07-30T00:02:39;94447.91;;;22.81;72.74
12077;BME280;12420;42.676;23.262;2023-07-30T00:05:07;94461.16;;;22.78;72.76
12077;BME280;12420;42.676;23.262;2023-07-30T00:07:33;94454.88;;;22.68;72.60
12077;BME280;12420;42.676;23.262;2023-07-30T00:10:00;94460.78;;;22.60;73.44
12077;BME280;12420;42.676;23.262;2023-07-30T00:12:27;94405.59;;;22.22;73.52
12077;BME280;12420;42.676;23.262;2023-07-30T00:14:54;94412.88;;;22.15;74.31
12077;BME280;12420;42.676;23.262;2023-07-30T00:17:20;94363.75;;;21.50;74.81
12077;BME280;12420;42.676;23.262;2023-07-30T00:19:48;94441.25;;;22.29;75.35
12077;BME280;12420;42.676;23.262;2023-07-30T00:22:15;94448.72;;;22.24;75.92
12077;BME280;12420;42.676;23.262;2023-07-30T00:24:42;94414.72;;;21.99;76.57
12077;BME280;12420;42.676;23.262;2023-07-30T00:27:09;94448.94;;;22.17;76.56
12077;BME280;12420;42.676;23.262;2023-07-30T00:29:36;94418.25;;;21.99;76.47
12077;BME280;12420;42.676;23.262;2023-07-30T00:32:03;94393.59;;;21.76;76.65
12077;BME280;12420;42.676;23.262;2023-07-30T00:34:29;94416.75;;;21.86;75.98
12077;BME280;12420;42.676;23.262;2023-07-30T00:36:58;94431.50;;;21.97;76.11
12077;BME280;12420;42.676;23.262;2023-07-30T00:39:24;94396.13;;;21.72;75.98
12077;BME280;12420;42.676;23.262;2023-07-30T00:41:51;94421.22;;;22.01;76.63
12077;BME280;12420;42.676;23.262;2023-07-30T00:44:18;94415.44;;;21.99;77.72
12077;BME280;12420;42.676;23.262;2023-07-30T00:46:45;94434.44;;;22.10;78.08
12077;BME280;12420;42.676;23.262;2023-07-30T00:49:13;94430.16;;;22.09;78.13
12077;BME280;12420;42.676;23.262;2023-07-30T00:51:41;94434.22;;;22.06;78.52
12077;BME280;12420;42.676;23.262;2023-07-30T00:54:10;94433.72;;;22.10;78.80
12077;BME280;12420;42.676;23.262;2023-07-30T00:56:37;94432.50;;;22.13;78.33
12077;BME280;12420;42.676;23.262;2023-07-30T00:59:06;94436.94;;;22.16;76.77
12077;BME280;12420;42.676;23.262;2023-07-30T01:01:35;94431.94;;;22.26;76.56
12077;BME280;12420;42.676;23.262;2023-07-30T01:04:04;94435.38;;;22.25;76.24
12077;BME280;12420;42.676;23.262;2023-07-30T01:06:30;94361.09;;;21.75;76.31
12077;BME280;12420;42.676;23.262;2023-07-30T01:08:57;94428.00;;;22.20;75.52
12077;BME280;12420;42.676;23.262;2023-07-30T01:11:25;94445.28;;;22.26;75.45
12077;BME280;12420;42.676;23.262;2023-07-30T01:13:53;94444.75;;;22.18;76.01
12077;BME280;12420;42.676;23.262;2023-07-30T01:16:22;94440.34;;;22.15;76.56
12077;BME280;12420;42.676;23.262;2023-07-30T01:19:01;94426.22;;;21.91;77.61
12077;BME280;12420;42.676;23.262;2023-07-30T01:21:32;94440.06;;;21.99;78.04
12077;BME280;12420;42.676;23.262;2023-07-30T01:23:59;94442.16;;;21.98;78.52
12077;BME280;12420;42.676;23.262;2023-07-30T01:26:30;94448.03;;;22.02;78.73
12077;BME280;12420;42.676;23.262;2023-07-30T01:29:00;94405.97;;;21.83;78.38
12077;BME280;12420;42.676;23.262;2023-07-30T01:31:31;94438.13;;;22.01;78.03
12077;BME280;12420;42.676;23.262;2023-07-30T01:34:01;94445.94;;;22.03;78.34
12077;BME280;12420;42.676;23.262;2023-07-30T01:36:29;94441.94;;;22.06;78.56
12077;BME280;12420;42.676;23.262;2023-07-30T01:38:59;94445.72;;;22.10;78.79
12077;BME280;12420;42.676;23.262;2023-07-30T01:41:26;94450.75;;;22.12;78.65
12077;BME280;12420;42.676;23.262;2023-07-30T01:43:53;94446.72;;;22.15;78.63
12077;BME280;12420;42.676;23.262;2023-07-30T01:46:20;94447.44;;;22.16;78.76
12077;BME280;12420;42.676;23.262;2023-07-30T01:48:47;94451.88;;;22.19;78.68
12077;BME280;12420;42.676;23.262;2023-07-30T01:51:14;94444.38;;;22.11;78.99
12077;BME280;12420;42.676;23.262;2023-07-30T01:53:41;94432.72;;;21.94;79.59
12077;BME280;12420;42.676;23.262;2023-07-30T01:56:09;94457.75;;;22.11;79.72
12077;BME280;12420;42.676;23.262;2023-07-30T01:58:36;94455.16;;;22.03;80.13
12077;BME280;12420;42.676;23.262;2023-07-30T02:01:03;94440.59;;;21.74;81.41
12077;BME280;12420;42.676;23.262;2023-07-30T02:03:30;94452.88;;;21.78;81.83
12077;BME280;12420;42.676;23.262;2023-07-30T02:05:57;94414.53;;;21.40;82.39
12077;BME280;12420;42.676;23.262;2023-07-30T02:08:23;94451.34;;;21.65;82.99
12077;BME280;12420;42.676;23.262;2023-07-30T02:10:56;94454.56;;;21.72;83.15
12077;BME280;12420;42.676;23.262;2023-07-30T02:13:24;94451.59;;;21.70;83.71
12077;BME280;12420;42.676;23.262;2023-07-30T02:15:52;94467.50;;;21.65;84.08
12077;BME280;12420;42.676;23.262;2023-07-30T02:18:19;94454.19;;;21.65;84.42
12077;BME280;12420;42.676;23.262;2023-07-30T02:20:45;94458.09;;;21.72;84.21
12077;BME280;12420;42.676;23.262;2023-07-30T02:23:14;94459.66;;;21.63;84.72
12077;BME280;12420;42.676;23.262;2023-07-30T02:25:41;94453.91;;;21.61;84.78
12077;BME280;12420;42.676;23.262;2023-07-30T02:28:07;94457.72;;;21.66;84.46
12077;BME280;12420;42.676;23.262;2023-07-30T02:30:36;94441.84;;;21.49;84.62
12077;BME280;12420;42.676;23.262;2023-07-30T02:33:02;94432.94;;;21.31;85.19
12077;BME280;12420;42.676;23.262;2023-07-30T02:35:29;94444.66;;;21.49;84.86
12077;BME280;12420;42.676;23.262;2023-07-30T02:37:56;94395.44;;;21.17;84.45
12077;BME280;12420;42.676;23.262;2023-07-30T02:40:24;94440.63;;;21.52;83.80
12077;BME280;12420;42.676;23.262;2023-07-30T02:42:51;94467.28;;;21.73;83.87
12077;BME280;12420;42.676;23.262;2023-07-30T02:45:18;94467.69;;;21.79;82.58
12077;BME280;12420;42.676;23.262;2023-07-30T02:47:46;94466.97;;;21.78;82.01
12077;BME280;12420;42.676;23.262;2023-07-30T02:50:14;94457.97;;;21.70;81.47
12077;BME280;12420;42.676;23.262;2023-07-30T02:52:41;94454.28;;;21.67;81.71
12077;BME280;12420;42.676;23.262;2023-07-30T02:55:08;94420.28;;;21.42;82.14
12077;BME280;12420;42.676;23.262;2023-07-30T02:57:35;94407.56;;;21.19;82.37
12077;BME280;12420;42.676;23.262;2023-07-30T03:00:03;94455.78;;;21.47;81.67
12077;BME280;12420;42.676;23.262;2023-07-30T03:02:30;94452.59;;;21.41;82.03
12077;BME280;12420;42.676;23.262;2023-07-30T03:04:58;94462.28;;;21.50;82.77
12077;BME280;12420;42.676;23.262;2023-07-30T03:07:25;94469.34;;;21.39;83.69
12077;BME280;12420;42.676;23.262;2023-07-30T03:09:52;94441.03;;;21.15;83.86
12077;BME280;12420;42.676;23.262;2023-07-30T03:12:19;94442.13;;;21.10;84.38
12077;BME280;12420;42.676;23.262;2023-07-30T03:14:46;94464.03;;;21.33;84.14
12077;BME280;12420;42.676;23.262;2023-07-30T03:17:13;94469.19;;;21.37;84.26
12077;BME280;12420;42.676;23.262;2023-07-30T03:19:40;94441.19;;;21.17;83.95
12077;BME280;12420;42.676;23.262;2023-07-30T03:22:09;94467.56;;;21.34;84.30
12077;BME280;12420;42.676;23.262;2023-07-30T03:24:35;94415.44;;;21.11;83.39
12077;BME280;12420;42.676;23.262;2023-07-30T03:27:02;94414.66;;;21.20;83.26
12077;BME280;12420;42.676;23.262;2023-07-30T03:29:29;94460.97;;;21.51;82.70
12077;BME280;12420;42.676;23.262;2023-07-30T03:31:56;94456.88;;;21.42;84.94
12077;BME280;12420;42.676;23.262;2023-07-30T03:34:23;94439.38;;;21.43;83.50
12077;BME280;12420;42.676;23.262;2023-07-30T03:36:50;94452.44;;;21.60;81.97
12077;BME280;12420;42.676;23.262;2023-07-30T03:39:18;94482.72;;;21.72;82.08
12077;BME280;12420;42.676;23.262;2023-07-30T03:41:44;94474.31;;;21.83;81.79
12077;BME280;12420;42.676;23.262;2023-07-30T03:44:11;94478.75;;;21.86;80.75
12077;BME280;12420;42.676;23.262;2023-07-30T03:46:38;94472.38;;;21.86;80.58
12077;BME280;12420;42.676;23.262;2023-07-30T03:49:05;94471.25;;;21.79;78.63
12077;BME280;12420;42.676;23.262;2023-07-30T03:51:32;94467.69;;;21.79;78.69
12077;BME280;12420;42.676;23.262;2023-07-30T03:53:59;94481.91;;;21.81;78.74
12077;BME280;12420;42.676;23.262;2023-07-30T03:56:28;94459.59;;;21.73;78.67
12077;BME280;12420;42.676;23.262;2023-07-30T03:58:54;94484.84;;;21.83;78.33
12077;BME280;12420;42.676;23.262;2023-07-30T04:01:21;94422.53;;;21.34;78.00
12077;BME280;12420;42.676;23.262;2023-07-30T04:03:48;94474.66;;;21.78;78.55
12077;BME280;12420;42.676;23.262;2023-07-30T04:06:15;94484.25;;;21.84;77.82
12077;BME280;12420;42.676;23.262;2023-07-30T04:08:42;94484.28;;;21.96;77.34
12077;BME280;12420;42.676;23.262;2023-07-30T04:11:09;94491.03;;;22.03;76.40
12077;BME280;12420;42.676;23.262;2023-07-30T04:13:37;94467.94;;;21.83;76.11
12077;BME280;12420;42.676;23.262;2023-07-30T04:16:04;94485.13;;;22.20;75.53
12077;BME280;12420;42.676;23.262;2023-07-30T04:18:30;94450.84;;;22.02;75.84
12077;BME280;12420;42.676;23.262;2023-07-30T04:20:57;94501.97;;;22.53;76.07
12077;BME280;12420;42.676;23.262;2023-07-30T04:23:24;94499.41;;;22.69;75.17
12077;BME280;12420;42.676;23.262;2023-07-30T04:25:51;94501.75;;;22.85;74.81
12077;BME280;12420;42.676;23.262;2023-07-30T04:28:18;94485.91;;;22.91;73.96
12077;BME280;12420;42.676;23.262;2023-07-30T04:30:46;94498.44;;;23.12;73.03
12077;BME280;12420;42.676;23.262;2023-07-30T04:33:13;94469.88;;;23.06;73.09
12077;BME280;12420;42.676;23.262;2023-07-30T04:35:40;94440.41;;;23.09;70.57
12077;BME280;12420;42.676;23.262;2023-07-30T04:38:07;94499.09;;;23.59;70.48
12077;BME280;12420;42.676;23.262;2023-07-30T04:40:34;94499.19;;;23.73;69.86
12077;BME280;12420;42.676;23.262;2023-07-30T04:43:00;94511.06;;;23.83;69.64
12077;BME280;12420;42.676;23.262;2023-07-30T04:45:27;94504.78;;;23.97;70.12
12077;BME280;12420;42.676;23.262;2023-07-30T04:47:56;94502.72;;;24.11;70.12
12077;BME280;12420;42.676;23.262;2023-07-30T04:50:23;94493.22;;;24.18;69.23
12077;BME280;12420;42.676;23.262;2023-07-30T04:52:53;94480.56;;;24.19;69.27
12077;BME280;12420;42.676;23.262;2023-07-30T04:55:19;94502.84;;;24.39;68.56
12077;BME280;12420;42.676;23.262;2023-07-30T04:57:46;94493.75;;;24.40;69.11
12077;BME280;12420;42.676;23.262;2023-07-30T05:00:14;94503.97;;;24.59;68.70
12077;BME280;12420;42.676;23.262;2023-07-30T05:02:41;94507.44;;;24.58;68.81
12077;BME280;12420;42.676;23.262;2023-07-30T05:05:09;94507.94;;;24.54;68.02
12077;BME280;12420;42.676;23.262;2023-07-30T05:07:36;94479.34;;;24.36;68.29
12077;BME280;12420;42.676;23.262;2023-07-30T05:10:04;94487.16;;;24.50;67.74
12077;BME280;12420;42.676;23.262;2023-07-30T05:12:34;94502.72;;;24.62;67.99
12077;BME280;12420;42.676;23.262;2023-07-30T05:15:00;94460.28;;;24.37;66.94
12077;BME280;12420;42.676;23.262;2023-07-30T05:17:27;94505.16;;;24.68;67.72
12077;BME280;12420;42.676;23.262;2023-07-30T05:19:54;94502.84;;;24.78;66.51
12077;BME280;12420;42.676;23.262;2023-07-30T05:22:22;94511.03;;;24.86;66.83
12077;BME280;12420;42.676;23.262;2023-07-30T05:24:50;94507.06;;;24.91;67.26
12077;BME280;12420;42.676;23.262;2023-07-30T05:27:18;94474.94;;;24.73;67.71
12077;BME280;12420;42.676;23.262;2023-07-30T05:29:45;94395.63;;;24.17;67.10
12077;BME280;12420;42.676;23.262;2023-07-30T05:32:12;94447.91;;;24.69;66.57
12077;BME280;12420;42.676;23.262;2023-07-30T05:34:39;94503.41;;;25.02;66.69
12077;BME280;12420;42.676;23.262;2023-07-30T05:37:06;94501.94;;;25.01;67.03
12077;BME280;12420;42.676;23.262;2023-07-30T05:39:34;94498.16;;;25.10;66.30
12077;BME280;12420;42.676;23.262;2023-07-30T05:42:00;94504.91;;;25.17;65.55
12077;BME280;12420;42.676;23.262;2023-07-30T05:44:27;94508.16;;;25.39;65.74
12077;BME280;12420;42.676;23.262;2023-07-30T05:46:54;94536.34;;;25.51;64.03
12077;BME280;12420;42.676;23.262;2023-07-30T05:49:21;94501.31;;;25.58;62.97
12077;BME280;12420;42.676;23.262;2023-07-30T05:51:48;94474.78;;;25.24;62.90
12077;BME280;12420;42.676;23.262;2023-07-30T05:54:14;94517.06;;;25.47;62.95
12077;BME280;12420;42.676;23.262;2023-07-30T05:56:43;94516.34;;;25.47;63.68
12077;BME280;12420;42.676;23.262;2023-07-30T05:59:09;94516.09;;;25.29;63.85
12077;BME280;12420;42.676;23.262;2023-07-30T06:01:36;94474.25;;;24.86;64.26
12077;BME280;12420;42.676;23.262;2023-07-30T06:04:03;94519.66;;;25.02;65.05
12077;BME280;12420;42.676;23.262;2023-07-30T06:06:30;94460.25;;;24.62;65.82
12077;BME280;12420;42.676;23.262;2023-07-30T06:08:56;94522.38;;;25.00;65.16
12077;BME280;12420;42.676;23.262;2023-07-30T06:11:24;94526.47;;;25.10;66.08
12077;BME280;12420;42.676;23.262;2023-07-30T06:13:53;94532.25;;;25.26;64.42
12077;BME280;12420;42.676;23.262;2023-07-30T06:16:20;94507.19;;;25.21;65.28
12077;BME280;12420;42.676;23.262;2023-07-30T06:18:46;94505.63;;;25.31;64.35
12077;BME280;12420;42.676;23.262;2023-07-30T06:21:13;94521.16;;;25.44;63.81
12077;BME280;12420;42.676;23.262;2023-07-30T06:23:40;94514.22;;;25.47;63.41
12077;BME280;12420;42.676;23.262;2023-07-30T06:26:11;94509.25;;;25.62;61.84
12077;BME280;12420;42.676;23.262;2023-07-30T06:28:37;94515.25;;;25.54;61.04
12077;BME280;12420;42.676;23.262;2023-07-30T06:31:06;94443.31;;;25.04;61.27
12077;BME280;12420;42.676;23.262;2023-07-30T06:33:33;94455.16;;;25.28;62.00
12077;BME280;12420;42.676;23.262;2023-07-30T06:36:00;94528.03;;;25.96;60.45
12077;BME280;12420;42.676;23.262;2023-07-30T06:38:26;94474.72;;;25.65;59.31
12077;BME280;12420;42.676;23.262;2023-07-30T06:40:53;94506.59;;;25.93;60.13
12077;BME280;12420;42.676;23.262;2023-07-30T06:43:22;94501.22;;;25.99;59.71
12077;BME280;12420;42.676;23.262;2023-07-30T06:45:49;94498.97;;;26.12;57.72
12077;BME280;12420;42.676;23.262;2023-07-30T06:48:17;94426.19;;;25.87;57.73
12077;BME280;12420;42.676;23.262;2023-07-30T06:51:13;94495.47;;;26.43;56.67
12077;BME280;12420;42.676;23.262;2023-07-30T06:53:40;94494.56;;;26.38;58.63
12077;BME280;12420;42.676;23.262;2023-07-30T06:56:12;94496.41;;;26.48;55.93
12077;BME280;12420;42.676;23.262;2023-07-30T06:58:39;94399.44;;;25.76;55.21
12077;BME280;12420;42.676;23.262;2023-07-30T07:01:06;94480.59;;;26.58;54.13
12077;BME280;12420;42.676;23.262;2023-07-30T07:03:34;94489.31;;;26.78;53.21
12077;BME280;12420;42.676;23.262;2023-07-30T07:06:03;94488.38;;;26.58;54.15
12077;BME280;12420;42.676;23.262;2023-07-30T07:08:31;94441.44;;;26.25;54.04
12077;BME280;12420;42.676;23.262;2023-07-30T07:11:00;94487.38;;;26.83;54.75
12077;BME280;12420;42.676;23.262;2023-07-30T07:13:26;94497.00;;;26.92;53.96
12077;BME280;12420;42.676;23.262;2023-07-30T07:15:53;94469.25;;;26.74;54.46
12077;BME280;12420;42.676;23.262;2023-07-30T07:18:20;94474.44;;;27.12;52.82
12077;BME280;12420;42.676;23.262;2023-07-30T07:20:51;94378.56;;;25.99;52.05
12077;BME280;12420;42.676;23.262;2023-07-30T07:23:19;94464.50;;;26.95;52.55
12077;BME280;12420;42.676;23.262;2023-07-30T07:25:47;94474.53;;;27.14;50.79
12077;BME280;12420;42.676;23.262;2023-07-30T07:28:14;94430.50;;;26.81;52.86
12077;BME280;12420;42.676;23.262;2023-07-30T07:30:44;94472.50;;;27.32;50.79
12077;BME280;12420;42.676;23.262;2023-07-30T07:33:13;94392.31;;;26.68;50.22
12077;BME280;12420;42.676;23.262;2023-07-30T07:35:40;94473.31;;;27.35;49.96
12077;BME280;12420;42.676;23.262;2023-07-30T07:38:08;94463.81;;;27.62;51.49
12077;BME280;12420;42.676;23.262;2023-07-30T07:40:36;94348.59;;;26.91;49.85
12077;BME280;12420;42.676;23.262;2023-07-30T07:43:05;94420.53;;;27.30;50.04
12077;BME280;12420;42.676;23.262;2023-07-30T07:45:32;94421.50;;;27.02;51.04
12077;BME280;12420;42.676;23.262;2023-07-30T07:47:59;94442.34;;;27.41;51.35
12077;BME280;12420;42.676;23.262;2023-07-30T07:50:28;94394.44;;;27.17;51.50
12077;BME280;12420;42.676;23.262;2023-07-30T07:52:58;94452.94;;;27.56;50.32
12077;BME280;12420;42.676;23.262;2023-07-30T07:55:27;94425.88;;;27.21;50.52
12077;BME280;12420;42.676;23.262;2023-07-30T07:57:54;94447.91;;;27.73;51.73
12077;BME280;12420;42.676;23.262;2023-07-30T08:00:21;94379.16;;;27.09;51.48
12077;BME280;12420;42.676;23.262;2023-07-30T08:02:48;94431.28;;;27.83;50.81
12077;BME280;12420;42.676;23.262;2023-07-30T08:05:17;94442.66;;;27.83;50.64
12077;BME280;12420;42.676;23.262;2023-07-30T08:07:45;94440.13;;;27.91;50.45
12077;BME280;12420;42.676;23.262;2023-07-30T08:10:17;94447.94;;;28.08;50.24
12077;BME280;12420;42.676;23.262;2023-07-30T08:12:50;94404.72;;;27.94;50.19
12077;BME280;12420;42.676;23.262;2023-07-30T08:15:19;94365.34;;;27.70;49.80
12077;BME280;12420;42.676;23.262;2023-07-30T08:17:46;94347.47;;;27.50;49.58
12077;BME280;12420;42.676;23.262;2023-07-30T08:20:16;94362.03;;;27.76;46.88
12077;BME280;12420;42.676;23.262;2023-07-30T08:22:44;94344.81;;;27.54;47.05
12077;BME280;12420;42.676;23.262;2023-07-30T08:25:12;94464.56;;;28.52;47.28
12077;BME280;12420;42.676;23.262;2023-07-30T08:27:41;94436.28;;;28.56;46.16
12077;BME280;12420;42.676;23.262;2023-07-30T08:30:12;94438.00;;;28.83;45.99
12077;BME280;12420;42.676;23.262;2023-07-30T08:32:39;94434.09;;;28.74;45.14
12077;BME280;12420;42.676;23.262;2023-07-30T08:35:09;94347.66;;;27.90;45.70
12077;BME280;12420;42.676;23.262;2023-07-30T08:37:37;94422.13;;;28.78;45.31
12077;BME280;12420;42.676;23.262;2023-07-30T08:40:07;94423.13;;;28.67;45.53
12077;BME280;12420;42.676;23.262;2023-07-30T08:42:35;94338.59;;;28.13;46.23
12077;BME280;12420;42.676;23.262;2023-07-30T08:45:05;94330.59;;;28.28;46.85
12077;BME280;12420;42.676;23.262;2023-07-30T08:47:34;94399.63;;;28.86;45.94
12077;BME280;12420;42.676;23.262;2023-07-30T08:50:02;94421.19;;;29.31;44.99
12077;BME280;12420;42.676;23.262;2023-07-30T08:52:29;94376.25;;;29.10;42.67
12077;BME280;12420;42.676;23.262;2023-07-30T08:54:57;94406.47;;;29.39;41.44
12077;BME280;12420;42.676;23.262;2023-07-30T08:57:28;94423.41;;;29.55;40.67
12077;BME280;12420;42.676;23.262;2023-07-30T09:00:03;94388.06;;;29.42;41.04
12077;BME280;12420;42.676;23.262;2023-07-30T09:02:37;94438.66;;;29.41;40.16
12077;BME280;12420;42.676;23.262;2023-07-30T09:05:05;94370.50;;;29.08;40.79
12077;BME280;12420;42.676;23.262;2023-07-30T09:07:32;94386.84;;;29.27;40.75
12077;BME280;12420;42.676;23.262;2023-07-30T09:10:04;94405.22;;;29.44;40.44
12077;BME280;12420;42.676;23.262;2023-07-30T09:12:32;94396.06;;;29.48;40.95
12077;BME280;12420;42.676;23.262;2023-07-30T09:14:59;94403.28;;;29.51;40.13
12077;BME280;12420;42.676;23.262;2023-07-30T09:17:26;94343.81;;;29.19;39.97
12077;BME280;12420;42.676;23.262;2023-07-30T09:20:08;94359.06;;;29.50;38.11
12077;BME280;12420;42.676;23.262;2023-07-30T09:22:35;94397.78;;;29.77;38.20
12077;BME280;12420;42.676;23.262;2023-07-30T09:25:06;94400.63;;;29.77;36.58
12077;BME280;12420;42.676;23.262;2023-07-30T09:27:33;94401.63;;;30.10;35.09
12077;BME280;12420;42.676;23.262;2023-07-30T09:30:01;94398.31;;;30.17;36.20
12077;BME280;12420;42.676;23.262;2023-07-30T09:32:33;94340.28;;;29.86;36.00
12077;BME280;12420;42.676;23.262;2023-07-30T09:35:10;94336.13;;;29.90;35.91
12077;BME280;12420;42.676;23.262;2023-07-30T09:37:41;94392.72;;;30.43;35.85
12077;BME280;12420;42.676;23.262;2023-07-30T09:40:10;94390.09;;;30.52;34.39
12077;BME280;12420;42.676;23.262;2023-07-30T09:42:41;94338.66;;;30.25;34.92
12077;BME280;12420;42.676;23.262;2023-07-30T09:45:16;94379.22;;;30.46;33.78
12077;BME280;12420;42.676;23.262;2023-07-30T09:47:46;94337.09;;;30.22;35.54
12077;BME280;12420;42.676;23.262;2023-07-30T09:50:15;94313.28;;;30.14;34.48
12077;BME280;12420;42.676;23.262;2023-07-30T09:52:44;94259.34;;;29.52;33.60
12077;BME280;12420;42.676;23.262;2023-07-30T09:55:12;94367.97;;;30.52;34.24
12077;BME280;12420;42.676;23.262;2023-07-30T09:57:40;94271.41;;;29.96;33.84
12077;BME280;12420;42.676;23.262;2023-07-30T10:00:08;94373.13;;;30.82;32.85
12077;BME280;12420;42.676;23.262;2023-07-30T10:02:42;94373.31;;;30.64;32.06
12077;BME280;12420;42.676;23.262;2023-07-30T10:05:16;94339.19;;;30.70;32.36
12077;BME280;12420;42.676;23.262;2023-07-30T10:07:49;94369.31;;;30.75;32.24
12077;BME280;12420;42.676;23.262;2023-07-30T10:10:18;94248.34;;;29.88;32.33
12077;BME280;12420;42.676;23.262;2023-07-30T10:12:46;94288.78;;;30.28;33.49
12077;BME280;12420;42.676;23.262;2023-07-30T10:15:18;94256.84;;;30.10;32.44
12077;BME280;12420;42.676;23.262;2023-07-30T10:17:48;94313.63;;;30.50;32.80
12077;BME280;12420;42.676;23.262;2023-07-30T10:20:25;94252.34;;;30.03;33.81
12077;BME280;12420;42.676;23.262;2023-07-30T10:22:54;94292.75;;;30.19;33.53
12077;BME280;12420;42.676;23.262;2023-07-30T10:25:25;94231.44;;;29.96;34.34
12077;BME280;12420;42.676;23.262;2023-07-30T10:27:53;94290.34;;;30.34;33.81
12077;BME280;12420;42.676;23.262;2023-07-30T10:30:20;94301.13;;;30.61;33.72
12077;BME280;12420;42.676;23.262;2023-07-30T10:32:59;94353.44;;;30.94;33.22
12077;BME280;12420;42.676;23.262;2023-07-30T10:35:51;94313.59;;;31.00;32.64
12077;BME280;12420;42.676;23.262;2023-07-30T10:38:22;94257.06;;;30.70;32.42
12077;BME280;12420;42.676;23.262;2023-07-30T10:41:01;94276.59;;;30.80;32.54
12077;BME280;12420;42.676;23.262;2023-07-30T10:43:29;94312.19;;;31.29;32.78
12077;BME280;12420;42.676;23.262;2023-07-30T10:46:16;94204.78;;;30.64;32.56
12077;BME280;12420;42.676;23.262;2023-07-30T10:48:45;94272.69;;;31.22;31.95
12077;BME280;12420;42.676;23.262;2023-07-30T10:51:15;94185.38;;;30.60;31.46
12077;BME280;12420;42.676;23.262;2023-07-30T10:53:43;94231.97;;;30.93;31.90
12077;BME280;12420;42.676;23.262;2023-07-30T10:56:10;94180.38;;;30.59;32.47
12077;BME280;12420;42.676;23.262;2023-07-30T10:58:38;94190.19;;;30.80;31.70
12077;BME280;12420;42.676;23.262;2023-07-30T11:01:07;94260.59;;;31.53;32.13
12077;BME280;12420;42.676;23.262;2023-07-30T11:03:35;94177.06;;;30.99;31.71
12077;BME280;12420;42.676;23.262;2023-07-30T11:06:03;94265.06;;;31.61;31.20
12077;BME280;12420;42.676;23.262;2023-07-30T11:08:36;94233.22;;;31.44;31.45
12077;BME280;12420;42.676;23.262;2023-07-30T11:11:15;94227.06;;;31.56;31.50
12077;BME280;12420;42.676;23.262;2023-07-30T11:13:44;94275.00;;;31.90;32.01
12077;BME280;12420;42.676;23.262;2023-07-30T11:16:12;94191.69;;;31.41;31.29
12077;BME280;12420;42.676;23.262;2023-07-30T11:18:40;94194.69;;;31.47;31.22
12077;BME280;12420;42.676;23.262;2023-07-30T11:21:09;94210.84;;;31.67;30.90
12077;BME280;12420;42.676;23.262;2023-07-30T11:23:40;94213.56;;;31.61;29.97
12077;BME280;12420;42.676;23.262;2023-07-30T11:26:08;94239.72;;;31.79;30.46
12077;BME280;12420;42.676;23.262;2023-07-30T11:28:36;94191.47;;;31.33;30.67
12077;BME280;12420;42.676;23.262;2023-07-30T11:31:06;94255.47;;;31.80;30.96
12077;BME280;12420;42.676;23.262;2023-07-30T11:33:35;94155.34;;;31.15;30.43
12077;BME280;12420;42.676;23.262;2023-07-30T11:36:02;94234.56;;;32.06;30.10
12077;BME280;12420;42.676;23.262;2023-07-30T11:38:30;94256.34;;;32.19;30.28
12077;BME280;12420;42.676;23.262;2023-07-30T11:41:03;94128.75;;;31.41;30.88
12077;BME280;12420;42.676;23.262;2023-07-30T11:43:35;94233.91;;;32.43;29.50
12077;BME280;12420;42.676;23.262;2023-07-30T11:46:09;94192.19;;;31.98;30.48
12077;BME280;12420;42.676;23.262;2023-07-30T11:48:40;94232.16;;;32.62;29.45
12077;BME280;12420;42.676;23.262;2023-07-30T11:51:19;94180.56;;;32.24;30.08
12077;BME280;12420;42.676;23.262;2023-07-30T11:53:48;94217.84;;;32.28;29.22
12077;BME280;12420;42.676;23.262;2023-07-30T11:56:24;94162.44;;;32.13;29.11
12077;BME280;12420;42.676;23.262;2023-07-30T11:58:57;94113.56;;;31.67;28.95
12077;BME280;12420;42.676;23.262;2023-07-30T12:01:28;94129.03;;;31.90;29.13
12077;BME280;12420;42.676;23.262;2023-07-30T12:03:57;94099.00;;;31.54;29.70
12077;BME280;12420;42.676;23.262;2023-07-30T12:06:38;94186.16;;;32.18;29.14
12077;BME280;12420;42.676;23.262;2023-07-30T12:09:13;94223.19;;;32.44;28.55
12077;BME280;12420;42.676;23.262;2023-07-30T12:11:50;94144.69;;;32.21;29.25
12077;BME280;12420;42.676;23.262;2023-07-30T12:14:22;94186.44;;;32.71;28.86
12077;BME280;12420;42.676;23.262;2023-07-30T12:16:51;94107.88;;;32.43;28.81
12077;BME280;12420;42.676;23.262;2023-07-30T12:19:18;94149.91;;;32.71;29.10
12077;BME280;12420;42.676;23.262;2023-07-30T12:21:45;94103.69;;;32.49;29.42
12077;BME280;12420;42.676;23.262;2023-07-30T12:24:12;94122.59;;;32.66;27.82
12077;BME280;12420;42.676;23.262;2023-07-30T12:26:40;94113.38;;;32.70;28.54
12077;BME280;12420;42.676;23.262;2023-07-30T12:29:10;94164.56;;;33.36;27.25
12077;BME280;12420;42.676;23.262;2023-07-30T12:31:38;94148.38;;;33.08;28.38
12077;BME280;12420;42.676;23.262;2023-07-30T12:34:05;94151.63;;;33.33;27.57
12077;BME280;12420;42.676;23.262;2023-07-30T12:36:33;94175.88;;;33.24;27.47
12077;BME280;12420;42.676;23.262;2023-07-30T12:39:01;94146.38;;;33.17;27.79
12077;BME280;12420;42.676;23.262;2023-07-30T12:41:28;94187.50;;;33.34;27.73
12077;BME280;12420;42.676;23.262;2023-07-30T12:43:57;94159.72;;;33.47;27.88
12077;BME280;12420;42.676;23.262;2023-07-30T12:46:26;94161.31;;;33.58;27.21
12077;BME280;12420;42.676;23.262;2023-07-30T12:48:55;94119.34;;;33.31;27.25
12077;BME280;12420;42.676;23.262;2023-07-30T12:51:22;94152.75;;;33.60;27.10
12077;BME280;12420;42.676;23.262;2023-07-30T12:53:50;94081.13;;;33.18;27.46
12077;BME280;12420;42.676;23.262;2023-07-30T12:56:17;94090.16;;;33.00;27.78